Time;durP1;ratioP1;P1;durP2;ratioP2;P2;SDS_P1;SDS_P2;PMS_P1;PMS_P2;Temp;Humidity;BMP_temperature;BMP_pressure;BME280_temperature;BME280_humidity;BME280_pressure;Samples;Min_cycle;Max_cycle;Signal;HPM_P1;HPM_P2
2022/11/26 00:02:29;;;;;;;17.65;5.30;;;;;;;;;;6246393;23;20242;-65
2022/11/26 00:04:56;;;;;;;13.20;5.75;;;;;;;;;;6246598;23;20082;-65
2022/11/26 00:07:25;;;;;;;16.63;5.50;;;;;;;;;;6246413;23;20307;-65
2022/11/26 00:09:52;;;;;;;19.15;6.57;;;;;;;;;;6246591;22;20383;-65
2022/11/26 00:12:36;;;;;;;11.55;4.25;;;;;;;;;;6246768;23;20370;-64
2022/11/26 00:15:14;;;;;;;28.73;5.68;;;;;;;;;;6246994;23;20004;-65
2022/11/26 00:17:40;;;;;;;25.70;6.20;;;;;;;;;;6246064;23;20008;-65
2022/11/26 00:20:07;;;;;;;15.65;5.13;;;;;;;;;;6244627;23;20058;-65
2022/11/26 00:22:36;;;;;;;19.40;5.28;;;;;;;;;;6245840;23;20004;-65
2022/11/26 00:25:02;;;;;;;23.20;5.88;;;;;;;;;;6246796;23;20000;-65
2022/11/26 00:27:28;;;;;;;14.63;5.03;;;;;;;;;;6246588;23;20340;-65
2022/11/26 00:29:55;;;;;;;15.95;5.53;;;;;;;;;;6246538;23;20027;-65
2022/11/26 00:32:23;;;;;;;15.88;5.32;;;;;;;;;;6246428;23;20201;-65
2022/11/26 00:34:49;;;;;;;16.05;5.20;;;;;;;;;;6246299;23;20067;-65
2022/11/26 00:37:26;;;;;;;12.85;5.18;;;;;;;;;;6246071;23;20014;-65
2022/11/26 00:39:53;;;;;;;21.80;5.35;;;;;;;;;;6246123;23;20008;-65
2022/11/26 00:42:19;;;;;;;13.82;5.22;;;;;;;;;;6246410;23;20060;-64
2022/11/26 00:44:45;;;;;;;23.58;5.32;;;;;;;;;;6246284;23;20011;-65
2022/11/26 00:47:11;;;;;;;18.48;4.90;;;;;;;;;;6246633;23;20031;-65
2022/11/26 00:49:37;;;;;;;21.15;4.95;;;;;;;;;;6246235;23;20000;-64
2022/11/26 00:52:05;;;;;;;23.67;5.35;;;;;;;;;;6246114;23;20024;-64
2022/11/26 00:54:32;;;;;;;17.60;4.72;;;;;;;;;;6246285;23;20087;-64
2022/11/26 00:56:58;;;;;;;15.48;5.32;;;;;;;;;;6246619;23;20304;-65
2022/11/26 00:59:24;;;;;;;20.58;5.57;;;;;;;;;;6246342;23;20004;-64
2022/11/26 01:01:50;;;;;;;11.15;4.53;;;;;;;;;;6245771;23;20004;-64
2022/11/26 01:04:16;;;;;;;13.90;4.53;;;;;;;;;;6246465;23;20440;-64
2022/11/26 01:06:44;;;;;;;15.18;4.38;;;;;;;;;;6245334;23;20008;-64
2022/11/26 01:09:16;;;;;;;14.93;4.50;;;;;;;;;;6246026;23;20081;-64
2022/11/26 01:11:42;;;;;;;13.57;3.85;;;;;;;;;;6246268;23;20080;-64
2022/11/26 01:14:18;;;;;;;14.63;4.35;;;;;;;;;;6246339;23;20075;-65
2022/11/26 01:16:45;;;;;;;14.50;3.97;;;;;;;;;;6245819;23;20062;-64
2022/11/26 01:19:12;;;;;;;18.10;4.25;;;;;;;;;;6245723;23;20000;-64
2022/11/26 01:21:39;;;;;;;11.73;4.43;;;;;;;;;;6245751;23;20004;-65
2022/11/26 01:24:05;;;;;;;16.13;4.40;;;;;;;;;;6246038;23;20008;-64
2022/11/26 01:26:36;;;;;;;14.55;4.60;;;;;;;;;;6246268;23;20004;-64
2022/11/26 01:29:03;;;;;;;18.27;4.18;;;;;;;;;;6246172;23;20479;-65
2022/11/26 01:31:29;;;;;;;10.23;3.67;;;;;;;;;;6245970;23;19997;-64
2022/11/26 01:33:56;;;;;;;24.67;6.18;;;;;;;;;;6245142;23;20000;-64
2022/11/26 01:36:22;;;;;;;29.10;5.47;;;;;;;;;;6246116;23;19997;-64
2022/11/26 01:38:48;;;;;;;17.20;5.00;;;;;;;;;;6245685;22;20000;-64
2022/11/26 01:41:20;;;;;;;22.27;5.15;;;;;;;;;;6245918;23;20342;-64
2022/11/26 01:43:47;;;;;;;17.52;4.20;;;;;;;;;;6245837;22;20031;-64
2022/11/26 01:46:17;;;;;;;19.70;4.25;;;;;;;;;;6245636;23;20000;-64
2022/11/26 01:48:43;;;;;;;18.55;4.40;;;;;;;;;;6244945;23;20393;-64
2022/11/26 01:51:10;;;;;;;17.27;4.38;;;;;;;;;;6246047;23;20007;-64
2022/11/26 01:53:49;;;;;;;16.08;4.63;;;;;;;;;;6245752;23;20012;-64
2022/11/26 01:56:31;;;;;;;16.48;4.93;;;;;;;;;;6245901;23;20346;-64
2022/11/26 01:59:09;;;;;;;16.38;4.10;;;;;;;;;;6244247;23;20008;-64
2022/11/26 02:01:35;;;;;;;17.25;4.57;;;;;;;;;;6245959;23;20011;-64
2022/11/26 02:04:02;;;;;;;18.75;4.68;;;;;;;;;;6245302;23;20003;-65
2022/11/26 02:06:30;;;;;;;18.98;4.47;;;;;;;;;;6245591;23;20050;-64
2022/11/26 02:08:58;;;;;;;15.30;4.20;;;;;;;;;;6245474;23;20004;-64
2022/11/26 02:11:24;;;;;;;11.75;3.97;;;;;;;;;;6245888;22;20055;-64
2022/11/26 02:13:53;;;;;;;18.02;4.35;;;;;;;;;;6244051;23;20004;-64
2022/11/26 02:16:38;;;;;;;12.75;4.40;;;;;;;;;;6245864;23;20011;-64
2022/11/26 02:19:11;;;;;;;23.98;4.63;;;;;;;;;;6245392;22;20011;-64
2022/11/26 02:21:38;;;;;;;10.75;4.65;;;;;;;;;;6244067;23;20039;-64
2022/11/26 02:24:17;;;;;;;17.77;4.07;;;;;;;;;;6245400;23;19996;-64
2022/11/26 02:27:12;;;;;;;14.15;5.22;;;;;;;;;;6245144;23;20000;-64
2022/11/26 02:29:57;;;;;;;16.67;4.30;;;;;;;;;;6122965;23;20010;-64
2022/11/26 02:32:28;;;;;;;16.15;4.43;;;;;;;;;;6122841;23;20010;-65
2022/11/26 02:35:00;;;;;;;22.10;5.95;;;;;;;;;;6122550;23;20081;-64
2022/11/26 02:37:31;;;;;;;15.48;3.92;;;;;;;;;;6123222;23;20085;-64
2022/11/26 02:39:57;;;;;;;13.35;4.07;;;;;;;;;;6122929;23;20010;-64
2022/11/26 02:42:28;;;;;;;17.83;4.45;;;;;;;;;;6123278;23;20016;-64
2022/11/26 02:45:00;;;;;;;14.20;4.55;;;;;;;;;;6122716;23;20042;-64
2022/11/26 02:47:27;;;;;;;26.00;7.70;;;;;;;;;;6122617;23;20088;-64
2022/11/26 02:49:54;;;;;;;15.15;4.47;;;;;;;;;;6122818;23;20002;-64
2022/11/26 02:52:21;;;;;;;13.40;4.18;;;;;;;;;;6123019;23;20010;-64
2022/11/26 02:54:48;;;;;;;16.40;4.03;;;;;;;;;;6122884;23;20445;-64
2022/11/26 02:57:15;;;;;;;24.30;4.80;;;;;;;;;;6122776;23;20021;-64
2022/11/26 02:59:41;;;;;;;11.95;4.72;;;;;;;;;;6123175;23;20010;-64
2022/11/26 03:02:10;;;;;;;16.77;4.57;;;;;;;;;;6122152;23;20010;-64
2022/11/26 03:04:39;;;;;;;18.70;4.90;;;;;;;;;;6122674;23;20010;-64
2022/11/26 03:07:05;;;;;;;19.45;4.10;;;;;;;;;;6206495;23;20023;-64
2022/11/26 03:09:39;;;;;;;19.40;4.20;;;;;;;;;;6214810;23;20011;-64
2022/11/26 03:12:05;;;;;;;14.50;4.45;;;;;;;;;;6214326;23;20504;-64
2022/11/26 03:14:31;;;;;;;16.70;4.00;;;;;;;;;;6214933;23;20015;-64
2022/11/26 03:16:57;;;;;;;16.02;3.95;;;;;;;;;;6214100;23;20040;-64
2022/11/26 03:19:23;;;;;;;17.35;5.38;;;;;;;;;;6214517;23;20001;-64
2022/11/26 03:21:49;;;;;;;22.02;4.40;;;;;;;;;;6214639;23;20031;-64
2022/11/26 03:24:15;;;;;;;17.95;5.10;;;;;;;;;;6214349;23;20008;-64
2022/11/26 03:26:41;;;;;;;18.40;4.53;;;;;;;;;;6214795;23;20063;-64
2022/11/26 03:29:08;;;;;;;20.90;4.15;;;;;;;;;;6214258;23;20000;-65
2022/11/26 03:31:34;;;;;;;13.27;4.22;;;;;;;;;;6215249;23;20005;-64
2022/11/26 03:34:00;;;;;;;24.55;3.75;;;;;;;;;;6216613;23;20075;-64
2022/11/26 03:36:26;;;;;;;12.25;3.40;;;;;;;;;;6216751;23;20028;-64
2022/11/26 03:38:52;;;;;;;15.93;4.97;;;;;;;;;;6216594;23;20012;-64
2022/11/26 03:41:18;;;;;;;11.35;3.55;;;;;;;;;;6216465;23;20080;-64
2022/11/26 03:43:44;;;;;;;10.23;3.58;;;;;;;;;;6216660;23;20005;-64
2022/11/26 03:46:10;;;;;;;12.88;3.88;;;;;;;;;;6215915;23;20038;-64
2022/11/26 03:48:37;;;;;;;15.15;3.75;;;;;;;;;;6216681;23;19996;-64
2022/11/26 03:51:03;;;;;;;13.20;4.47;;;;;;;;;;6216559;23;20004;-64
2022/11/26 03:53:29;;;;;;;12.93;3.65;;;;;;;;;;6216728;23;20007;-64
2022/11/26 03:55:55;;;;;;;14.98;4.00;;;;;;;;;;6189459;23;20382;-64
2022/11/26 03:58:21;;;;;;;15.43;3.25;;;;;;;;;;6216421;23;20009;-64
2022/11/26 04:00:47;;;;;;;19.60;3.22;;;;;;;;;;6216448;23;20319;-64
2022/11/26 04:03:13;;;;;;;13.32;3.22;;;;;;;;;;6215929;23;20011;-64
2022/11/26 04:05:39;;;;;;;16.27;3.53;;;;;;;;;;6229337;23;20434;-64
2022/11/26 04:08:06;;;;;;;8.70;3.30;;;;;;;;;;6246471;23;20004;-64
2022/11/26 04:10:32;;;;;;;8.23;2.72;;;;;;;;;;6246667;23;20441;-64
2022/11/26 04:12:58;;;;;;;6.95;2.58;;;;;;;;;;6246450;23;20369;-64
2022/11/26 04:15:24;;;;;;;12.63;3.35;;;;;;;;;;6246419;23;20004;-64
2022/11/26 04:17:50;;;;;;;16.50;3.20;;;;;;;;;;6246606;23;20004;-64
2022/11/26 04:20:16;;;;;;;18.77;3.47;;;;;;;;;;6246414;23;20047;-64
2022/11/26 04:22:42;;;;;;;9.23;2.70;;;;;;;;;;6245503;23;20000;-64
2022/11/26 04:25:09;;;;;;;13.40;2.60;;;;;;;;;;6245501;23;20000;-65
2022/11/26 04:27:35;;;;;;;8.38;2.75;;;;;;;;;;6246310;23;20391;-64
2022/11/26 04:30:01;;;;;;;6.30;2.17;;;;;;;;;;6245609;23;20031;-64
2022/11/26 04:32:27;;;;;;;14.85;2.97;;;;;;;;;;6246274;23;20000;-64
2022/11/26 04:34:53;;;;;;;12.10;3.10;;;;;;;;;;6246203;23;20034;-65
2022/11/26 04:37:19;;;;;;;16.42;2.85;;;;;;;;;;6246166;23;20000;-64
2022/11/26 04:39:45;;;;;;;12.50;3.22;;;;;;;;;;6246039;23;20007;-65
2022/11/26 04:42:11;;;;;;;12.98;2.47;;;;;;;;;;6245127;23;20035;-64
2022/11/26 04:44:37;;;;;;;9.32;2.72;;;;;;;;;;6245418;23;20008;-64
2022/11/26 04:47:04;;;;;;;15.23;2.80;;;;;;;;;;6245622;23;20008;-64
2022/11/26 04:49:30;;;;;;;13.30;2.80;;;;;;;;;;6245371;22;20008;-64
2022/11/26 04:51:56;;;;;;;16.25;3.10;;;;;;;;;;6245832;23;20011;-64
2022/11/26 04:54:22;;;;;;;16.42;3.33;;;;;;;;;;6245920;23;20004;-64
2022/11/26 04:56:48;;;;;;;21.55;3.85;;;;;;;;;;6245644;23;20083;-65
2022/11/26 04:59:14;;;;;;;12.35;3.03;;;;;;;;;;6246018;22;20015;-64
2022/11/26 05:01:41;;;;;;;14.63;3.15;;;;;;;;;;6246322;23;20007;-64
2022/11/26 05:04:07;;;;;;;14.52;4.07;;;;;;;;;;6246098;23;20054;-65
2022/11/26 05:06:33;;;;;;;18.58;2.85;;;;;;;;;;6245675;23;20013;-64
2022/11/26 05:08:59;;;;;;;18.23;2.85;;;;;;;;;;6246371;23;20000;-65
2022/11/26 05:11:25;;;;;;;18.23;2.70;;;;;;;;;;6245429;23;20058;-64
2022/11/26 05:13:51;;;;;;;10.13;2.63;;;;;;;;;;6246255;23;20008;-64
2022/11/26 05:16:17;;;;;;;10.48;2.75;;;;;;;;;;6245547;23;20004;-64
2022/11/26 05:18:44;;;;;;;11.65;2.80;;;;;;;;;;6246142;23;20004;-64
2022/11/26 05:21:10;;;;;;;7.80;2.53;;;;;;;;;;6245746;23;20222;-64
2022/11/26 05:23:36;;;;;;;11.73;2.63;;;;;;;;;;6245975;23;20044;-64
2022/11/26 05:26:02;;;;;;;20.13;3.83;;;;;;;;;;6245108;23;20030;-64
2022/11/26 05:28:28;;;;;;;10.60;2.78;;;;;;;;;;6245454;23;20004;-64
2022/11/26 05:30:58;;;;;;;9.52;2.85;;;;;;;;;;6246100;23;20075;-65
2022/11/26 05:33:24;;;;;;;7.57;3.08;;;;;;;;;;6245567;22;20015;-64
2022/11/26 05:35:51;;;;;;;14.82;3.75;;;;;;;;;;6245703;23;20023;-64
2022/11/26 05:38:17;;;;;;;10.95;2.95;;;;;;;;;;6245806;23;20397;-64
2022/11/26 05:40:43;;;;;;;18.55;3.10;;;;;;;;;;6245312;23;20038;-64
2022/11/26 05:43:09;;;;;;;15.50;2.67;;;;;;;;;;6245629;23;20014;-64
2022/11/26 05:45:35;;;;;;;11.70;2.97;;;;;;;;;;6245506;23;20003;-64
2022/11/26 05:48:01;;;;;;;9.43;2.92;;;;;;;;;;6245951;23;20004;-64
2022/11/26 05:50:27;;;;;;;10.82;3.67;;;;;;;;;;6245280;23;20007;-65
2022/11/26 05:52:53;;;;;;;10.63;2.75;;;;;;;;;;6245691;23;20008;-64
2022/11/26 05:55:19;;;;;;;8.25;3.13;;;;;;;;;;6245090;23;20015;-65
2022/11/26 05:57:46;;;;;;;13.93;3.13;;;;;;;;;;6245619;23;20008;-64
2022/11/26 06:00:12;;;;;;;7.38;2.95;;;;;;;;;;6245619;23;20018;-64
2022/11/26 06:02:38;;;;;;;14.13;3.25;;;;;;;;;;6245633;23;20016;-64
2022/11/26 06:05:04;;;;;;;16.83;4.10;;;;;;;;;;6245376;23;20040;-64
2022/11/26 06:07:31;;;;;;;20.10;3.80;;;;;;;;;;6243686;23;20394;-64
2022/11/26 06:09:57;;;;;;;14.30;3.35;;;;;;;;;;6245284;23;20134;-65
2022/11/26 06:12:23;;;;;;;12.90;3.00;;;;;;;;;;6245374;23;20337;-64
2022/11/26 06:14:49;;;;;;;19.60;4.00;;;;;;;;;;6245602;23;20004;-64
2022/11/26 06:17:15;;;;;;;14.70;3.45;;;;;;;;;;6245385;23;20075;-64
2022/11/26 06:19:41;;;;;;;17.73;3.22;;;;;;;;;;6245216;23;20007;-64
2022/11/26 06:22:08;;;;;;;15.95;3.70;;;;;;;;;;6245424;23;20065;-64
2022/11/26 06:24:34;;;;;;;17.30;3.55;;;;;;;;;;6244384;23;20049;-64
2022/11/26 06:27:00;;;;;;;14.38;2.97;;;;;;;;;;6245178;23;20061;-64
2022/11/26 06:29:26;;;;;;;16.15;2.97;;;;;;;;;;6244991;23;19996;-64
2022/11/26 06:31:52;;;;;;;21.00;2.90;;;;;;;;;;6245329;23;20011;-64
2022/11/26 06:34:18;;;;;;;8.23;2.55;;;;;;;;;;6245527;23;20000;-64
2022/11/26 06:36:44;;;;;;;20.95;4.15;;;;;;;;;;6244969;23;20030;-64
2022/11/26 06:39:11;;;;;;;16.40;3.03;;;;;;;;;;6245102;23;20075;-64
2022/11/26 06:41:37;;;;;;;20.33;3.47;;;;;;;;;;6244931;23;20000;-64
2022/11/26 06:44:03;;;;;;;21.02;3.92;;;;;;;;;;6245256;23;20046;-65
2022/11/26 06:46:30;;;;;;;12.98;3.88;;;;;;;;;;6244825;23;20008;-64
2022/11/26 06:49:00;;;;;;;10.68;2.40;;;;;;;;;;6245140;23;20112;-64
2022/11/26 06:51:26;;;;;;;13.75;2.90;;;;;;;;;;6244504;23;20446;-65
2022/11/26 06:53:52;;;;;;;15.63;3.35;;;;;;;;;;6244139;23;20000;-64
2022/11/26 06:56:19;;;;;;;27.02;3.35;;;;;;;;;;6244618;23;20008;-64
2022/11/26 06:58:48;;;;;;;9.73;2.53;;;;;;;;;;6244275;23;20004;-64
2022/11/26 07:01:16;;;;;;;16.20;3.60;;;;;;;;;;6244854;23;20032;-64
2022/11/26 07:03:42;;;;;;;14.63;3.75;;;;;;;;;;6244640;23;20000;-65
2022/11/26 07:06:15;;;;;;;12.95;3.95;;;;;;;;;;6244643;23;20023;-64
2022/11/26 07:08:41;;;;;;;16.23;3.60;;;;;;;;;;6246354;22;20345;-64
2022/11/26 07:11:09;;;;;;;8.95;2.88;;;;;;;;;;6247106;23;20020;-64
2022/11/26 07:13:35;;;;;;;10.27;2.88;;;;;;;;;;6246765;22;20059;-60
2022/11/26 07:16:02;;;;;;;7.82;2.65;;;;;;;;;;6247393;23;20350;-60
2022/11/26 07:18:29;;;;;;;8.70;2.47;;;;;;;;;;6246788;23;20067;-60
2022/11/26 07:20:55;;;;;;;8.45;2.05;;;;;;;;;;6246729;23;20004;-60
2022/11/26 07:23:21;;;;;;;13.38;3.00;;;;;;;;;;6246671;23;20012;-60
2022/11/26 07:25:47;;;;;;;9.77;2.53;;;;;;;;;;6246576;23;20455;-60
2022/11/26 07:28:13;;;;;;;11.23;3.92;;;;;;;;;;6246892;23;20011;-60
2022/11/26 07:30:39;;;;;;;16.75;3.42;;;;;;;;;;6246235;23;19996;-60
2022/11/26 07:33:05;;;;;;;17.00;2.78;;;;;;;;;;6246925;23;20011;-60
2022/11/26 07:35:31;;;;;;;19.13;3.97;;;;;;;;;;6246508;23;20079;-60
2022/11/26 07:37:58;;;;;;;9.60;2.80;;;;;;;;;;6245196;22;20452;-60
2022/11/26 07:40:24;;;;;;;12.13;3.45;;;;;;;;;;6246514;23;20001;-60
2022/11/26 07:42:50;;;;;;;16.33;3.33;;;;;;;;;;6246142;23;20723;-60
2022/11/26 07:45:18;;;;;;;14.07;3.58;;;;;;;;;;6245479;22;20035;-60
2022/11/26 07:47:44;;;;;;;15.15;3.67;;;;;;;;;;6244899;23;20520;-60
2022/11/26 07:50:10;;;;;;;14.23;3.58;;;;;;;;;;6244918;23;20075;-60
2022/11/26 07:52:36;;;;;;;17.55;3.83;;;;;;;;;;6244841;23;20012;-60
2022/11/26 07:55:02;;;;;;;12.15;4.15;;;;;;;;;;6245155;23;20078;-60
2022/11/26 07:57:28;;;;;;;7.72;3.10;;;;;;;;;;6245501;23;20007;-60
2022/11/26 07:59:54;;;;;;;16.73;3.50;;;;;;;;;;6244954;23;20004;-60
2022/11/26 08:02:20;;;;;;;16.08;3.42;;;;;;;;;;6245476;23;20016;-60
2022/11/26 08:04:47;;;;;;;18.25;3.50;;;;;;;;;;6244473;23;19996;-60
2022/11/26 08:07:13;;;;;;;18.40;4.30;;;;;;;;;;6245164;23;20319;-60
2022/11/26 08:09:39;;;;;;;26.52;4.97;;;;;;;;;;6245078;23;20015;-60
2022/11/26 08:12:05;;;;;;;20.65;4.60;;;;;;;;;;6244951;23;20003;-60
2022/11/26 08:14:32;;;;;;;27.00;4.53;;;;;;;;;;6245072;23;20126;-60
2022/11/26 08:16:58;;;;;;;27.15;4.47;;;;;;;;;;6244920;23;20019;-60
2022/11/26 08:19:24;;;;;;;19.08;3.95;;;;;;;;;;6244142;23;20495;-60
2022/11/26 08:21:50;;;;;;;18.58;3.65;;;;;;;;;;6244398;23;20008;-60
2022/11/26 08:24:18;;;;;;;25.38;4.10;;;;;;;;;;6244887;23;19996;-60
2022/11/26 08:26:44;;;;;;;19.05;3.10;;;;;;;;;;6244682;23;20004;-60
2022/11/26 08:29:10;;;;;;;24.40;3.40;;;;;;;;;;6245154;23;20054;-60
2022/11/26 08:31:39;;;;;;;24.95;3.70;;;;;;;;;;6245011;23;20001;-60
2022/11/26 08:34:05;;;;;;;28.27;3.70;;;;;;;;;;6244417;23;20015;-60
2022/11/26 08:36:32;;;;;;;17.50;3.30;;;;;;;;;;6243849;23;20016;-60
2022/11/26 08:38:58;;;;;;;27.13;3.65;;;;;;;;;;6244188;23;20054;-61
2022/11/26 08:41:25;;;;;;;21.95;3.38;;;;;;;;;;6244803;23;20019;-60
2022/11/26 08:43:51;;;;;;;25.55;3.95;;;;;;;;;;6244323;23;20342;-60
2022/11/26 08:46:17;;;;;;;22.50;3.88;;;;;;;;;;6244775;23;20015;-60
2022/11/26 08:48:44;;;;;;;25.67;3.38;;;;;;;;;;6243467;23;20433;-60
2022/11/26 08:51:11;;;;;;;21.80;3.47;;;;;;;;;;6243849;22;20005;-60
2022/11/26 08:53:37;;;;;;;18.20;3.20;;;;;;;;;;6244413;23;20081;-60
2022/11/26 08:56:04;;;;;;;24.35;3.47;;;;;;;;;;6241594;23;20023;-60
2022/11/26 08:58:32;;;;;;;21.85;3.50;;;;;;;;;;6244455;23;20004;-60
2022/11/26 09:00:58;;;;;;;23.65;3.35;;;;;;;;;;6244096;23;20027;-61
2022/11/26 09:03:24;;;;;;;21.35;3.22;;;;;;;;;;6243565;23;20058;-61
2022/11/26 09:05:50;;;;;;;19.52;3.20;;;;;;;;;;6242993;23;20008;-61
2022/11/26 09:08:17;;;;;;;16.50;3.10;;;;;;;;;;6244287;23;20003;-60
2022/11/26 09:10:52;;;;;;;20.48;3.33;;;;;;;;;;6243355;22;20000;-60
2022/11/26 09:13:18;;;;;;;20.38;3.35;;;;;;;;;;6240880;23;20016;-60
2022/11/26 09:15:44;;;;;;;13.90;2.65;;;;;;;;;;6243283;23;20018;-60
2022/11/26 09:18:10;;;;;;;26.40;3.90;;;;;;;;;;6242475;23;20038;-60
2022/11/26 09:20:36;;;;;;;15.73;4.00;;;;;;;;;;6243816;23;20038;-60
2022/11/26 09:23:02;;;;;;;22.63;3.55;;;;;;;;;;6244284;23;20004;-60
2022/11/26 09:25:28;;;;;;;26.25;4.85;;;;;;;;;;6244698;23;20318;-60
2022/11/26 09:27:54;;;;;;;17.98;3.38;;;;;;;;;;6244317;23;20085;-60
2022/11/26 09:30:20;;;;;;;15.40;3.08;;;;;;;;;;6243357;23;20411;-60
2022/11/26 09:32:46;;;;;;;19.27;5.63;;;;;;;;;;6244634;23;20012;-60
2022/11/26 09:35:13;;;;;;;15.45;3.25;;;;;;;;;;6244787;23;20000;-60
2022/11/26 09:37:39;;;;;;;22.00;3.33;;;;;;;;;;6245316;23;20004;-60
2022/11/26 09:40:05;;;;;;;16.88;2.97;;;;;;;;;;6244023;23;20065;-60
2022/11/26 09:42:31;;;;;;;24.65;3.03;;;;;;;;;;6243320;23;20046;-60
2022/11/26 09:44:57;;;;;;;17.55;2.60;;;;;;;;;;6243880;23;20000;-60
2022/11/26 09:47:26;;;;;;;21.02;3.08;;;;;;;;;;6244376;23;20085;-60
2022/11/26 09:50:02;;;;;;;21.00;4.15;;;;;;;;;;6244537;22;20079;-60
2022/11/26 09:52:33;;;;;;;16.38;2.67;;;;;;;;;;6244843;23;20346;-60
2022/11/26 09:55:18;;;;;;;13.32;3.15;;;;;;;;;;6244483;22;20008;-60
2022/11/26 09:58:02;;;;;;;21.55;4.63;;;;;;;;;;6244936;23;20334;-60
2022/11/26 10:00:32;;;;;;;20.42;3.67;;;;;;;;;;6244402;23;20427;-60
2022/11/26 10:02:58;;;;;;;23.83;3.00;;;;;;;;;;6243634;23;20325;-60
2022/11/26 10:05:36;;;;;;;20.23;4.20;;;;;;;;;;6244126;23;20032;-60
2022/11/26 10:08:07;;;;;;;20.55;3.40;;;;;;;;;;6244433;23;20058;-60
2022/11/26 10:10:49;;;;;;;19.58;3.75;;;;;;;;;;6244294;23;20327;-60
2022/11/26 10:13:27;;;;;;;20.93;3.80;;;;;;;;;;6241829;23;20094;-60
2022/11/26 10:16:03;;;;;;;21.67;3.38;;;;;;;;;;6242820;23;20239;-60
2022/11/26 10:18:29;;;;;;;21.30;3.60;;;;;;;;;;6243001;23;20367;-61
2022/11/26 10:21:04;;;;;;;17.90;3.35;;;;;;;;;;6243348;23;20349;-61
2022/11/26 10:23:37;;;;;;;17.58;2.83;;;;;;;;;;6242527;23;20043;-60
2022/11/26 10:26:03;;;;;;;19.42;4.07;;;;;;;;;;6241816;23;20007;-61
2022/11/26 10:28:32;;;;;;;25.70;3.75;;;;;;;;;;6243835;23;20000;-61
2022/11/26 10:31:06;;;;;;;26.42;3.78;;;;;;;;;;6243656;23;20501;-61
2022/11/26 10:33:36;;;;;;;20.42;3.28;;;;;;;;;;6243791;23;20008;-61
2022/11/26 10:36:03;;;;;;;17.15;2.92;;;;;;;;;;6243723;23;20056;-61
2022/11/26 10:38:29;;;;;;;19.67;3.55;;;;;;;;;;6243702;23;20066;-61
2022/11/26 10:40:55;;;;;;;17.92;2.97;;;;;;;;;;6243782;23;20004;-61
2022/11/26 10:43:23;;;;;;;17.77;2.88;;;;;;;;;;6243414;23;20012;-61
2022/11/26 10:45:53;;;;;;;19.35;3.63;;;;;;;;;;6243293;22;20004;-61
2022/11/26 10:48:20;;;;;;;26.58;3.45;;;;;;;;;;6243141;23;20067;-61
2022/11/26 10:51:01;;;;;;;19.65;3.30;;;;;;;;;;6243759;22;20012;-61
2022/11/26 10:53:29;;;;;;;19.35;2.97;;;;;;;;;;6243297;23;20083;-61
2022/11/26 10:55:57;;;;;;;21.05;3.00;;;;;;;;;;6243786;23;20004;-61
2022/11/26 10:58:25;;;;;;;26.83;5.38;;;;;;;;;;6243783;23;20357;-61
2022/11/26 11:00:51;;;;;;;15.95;3.17;;;;;;;;;;6243509;23;20004;-61
2022/11/26 11:03:19;;;;;;;24.55;5.25;;;;;;;;;;6243290;23;20008;-61
2022/11/26 11:05:45;;;;;;;26.33;5.20;;;;;;;;;;6243542;23;20059;-61
2022/11/26 11:08:13;;;;;;;19.17;4.60;;;;;;;;;;6243333;23;20015;-60
2022/11/26 11:10:51;;;;;;;27.85;4.53;;;;;;;;;;6243096;22;20057;-61
2022/11/26 11:13:17;;;;;;;23.15;5.10;;;;;;;;;;6243233;23;20012;-61
2022/11/26 11:15:44;;;;;;;26.73;4.28;;;;;;;;;;6243536;23;20497;-61
2022/11/26 11:18:13;;;;;;;20.10;4.07;;;;;;;;;;6243128;23;20019;-60
2022/11/26 11:20:43;;;;;;;20.23;3.20;;;;;;;;;;6242972;23;20051;-61
2022/11/26 11:23:09;;;;;;;26.88;3.70;;;;;;;;;;6243826;23;20468;-61
2022/11/26 11:25:38;;;;;;;15.73;3.00;;;;;;;;;;6243108;23;20316;-61
2022/11/26 11:28:24;;;;;;;24.52;2.90;;;;;;;;;;6243947;23;20012;-61
2022/11/26 11:30:58;;;;;;;22.85;3.42;;;;;;;;;;6243825;23;20334;-61
2022/11/26 11:33:26;;;;;;;25.98;5.30;;;;;;;;;;6243175;23;20008;-61
2022/11/26 11:36:06;;;;;;;16.25;3.78;;;;;;;;;;6243800;23;20353;-60
2022/11/26 11:38:34;;;;;;;19.70;4.00;;;;;;;;;;6243440;23;20346;-60
2022/11/26 11:41:01;;;;;;;16.42;3.55;;;;;;;;;;6244019;23;20371;-60
2022/11/26 11:43:28;;;;;;;16.67;5.28;;;;;;;;;;6242913;23;20083;-60
2022/11/26 11:46:01;;;;;;;23.05;3.53;;;;;;;;;;6243668;23;20327;-60
2022/11/26 11:48:30;;;;;;;14.70;3.35;;;;;;;;;;6243416;23;20004;-60
2022/11/26 11:51:32;;;;;;;12.68;3.03;;;;;;;;;;6243629;23;20122;-60
2022/11/26 11:54:01;;;;;;;22.90;3.95;;;;;;;;;;6122851;23;20089;-60
2022/11/26 11:56:30;;;;;;;28.65;4.93;;;;;;;;;;6122278;23;20021;-60
2022/11/26 11:59:06;;;;;;;17.70;3.40;;;;;;;;;;6098133;23;20017;-60
2022/11/26 12:01:43;;;;;;;20.50;3.25;;;;;;;;;;6122542;23;20293;-60
2022/11/26 12:04:17;;;;;;;26.23;2.70;;;;;;;;;;6122963;23;20804;-61
2022/11/26 12:06:54;;;;;;;22.38;3.20;;;;;;;;;;6122499;23;20624;-61
2022/11/26 12:09:38;;;;;;;21.33;3.63;;;;;;;;;;6122853;23;20014;-60
2022/11/26 12:12:13;;;;;;;21.17;3.55;;;;;;;;;;6122360;23;20077;-60
2022/11/26 12:14:48;;;;;;;18.55;3.70;;;;;;;;;;6122101;23;20064;-60
2022/11/26 12:17:19;;;;;;;14.43;2.80;;;;;;;;;;6123142;23;20014;-60
2022/11/26 12:19:52;;;;;;;20.05;3.20;;;;;;;;;;6122318;23;20369;-60
2022/11/26 12:22:26;;;;;;;22.20;3.92;;;;;;;;;;6122479;23;20097;-60
2022/11/26 12:24:55;;;;;;;15.93;3.95;;;;;;;;;;6122212;23;20053;-60
2022/11/26 12:27:25;;;;;;;20.55;4.07;;;;;;;;;;6133211;23;20341;-60
2022/11/26 12:29:57;;;;;;;16.92;3.40;;;;;;;;;;6244635;23;20008;-60
2022/11/26 12:32:39;;;;;;;26.98;3.28;;;;;;;;;;6244948;23;20077;-60
2022/11/26 12:35:14;;;;;;;16.42;3.03;;;;;;;;;;6245078;23;20015;-60
2022/11/26 12:37:41;;;;;;;22.67;4.28;;;;;;;;;;6244874;23;20004;-60
2022/11/26 12:40:08;;;;;;;15.65;3.10;;;;;;;;;;6245326;22;20011;-60
2022/11/26 12:42:34;;;;;;;12.98;3.08;;;;;;;;;;6244575;23;20389;-60
2022/11/26 12:45:20;;;;;;;20.33;3.33;;;;;;;;;;6244751;22;20000;-60
2022/11/26 12:47:52;;;;;;;22.25;3.22;;;;;;;;;;6244810;23;20006;-60
2022/11/26 12:50:37;;;;;;;16.67;3.00;;;;;;;;;;6244700;23;20011;-60
2022/11/26 12:53:09;;;;;;;17.23;2.97;;;;;;;;;;6244934;23;20008;-60
2022/11/26 12:55:42;;;;;;;12.80;2.65;;;;;;;;;;6243998;23;20026;-60
2022/11/26 12:58:11;;;;;;;14.55;3.53;;;;;;;;;;6244877;23;20008;-60
2022/11/26 13:00:38;;;;;;;17.30;3.38;;;;;;;;;;6244749;23;20000;-60
2022/11/26 13:03:13;;;;;;;18.65;2.85;;;;;;;;;;6244787;23;20111;-60
2022/11/26 13:06:18;;;;;;;17.58;3.22;;;;;;;;;;6243743;22;20099;-60
2022/11/26 13:08:48;;;;;;;18.10;3.00;;;;;;;;;;6122171;23;20006;-60
2022/11/26 13:11:33;;;;;;;24.65;3.38;;;;;;;;;;6122309;23;20102;-60
2022/11/26 13:14:19;;;;;;;17.77;3.28;;;;;;;;;;6121392;23;20472;-60
2022/11/26 13:16:50;;;;;;;16.27;3.33;;;;;;;;;;6106839;23;20014;-60
2022/11/26 13:19:20;;;;;;;23.00;2.97;;;;;;;;;;6121713;23;20445;-60
2022/11/26 13:21:54;;;;;;;19.67;3.05;;;;;;;;;;6121195;23;20010;-60
2022/11/26 13:24:23;;;;;;;17.45;2.53;;;;;;;;;;6121262;23;20096;-60
2022/11/26 13:26:51;;;;;;;26.15;4.03;;;;;;;;;;6121766;23;20013;-60
2022/11/26 13:29:23;;;;;;;20.52;2.97;;;;;;;;;;6122001;23;20006;-60
2022/11/26 13:32:08;;;;;;;16.13;2.70;;;;;;;;;;6121710;23;20010;-60
2022/11/26 13:34:54;;;;;;;16.15;2.83;;;;;;;;;;6121790;23;20226;-60
2022/11/26 13:37:38;;;;;;;15.43;2.83;;;;;;;;;;6122334;23;20014;-61
2022/11/26 13:40:20;;;;;;;13.25;2.60;;;;;;;;;;6212805;23;20012;-61
2022/11/26 13:42:55;;;;;;;21.23;3.10;;;;;;;;;;6244551;23;20008;-61
2022/11/26 13:45:21;;;;;;;22.10;4.35;;;;;;;;;;6243919;23;20564;-61
2022/11/26 13:47:54;;;;;;;25.60;3.78;;;;;;;;;;6244605;23;20433;-61
2022/11/26 13:50:32;;;;;;;23.85;3.75;;;;;;;;;;6244268;23;20509;-61
2022/11/26 13:53:33;;;;;;;26.10;4.50;;;;;;;;;;6243935;22;20042;-61
2022/11/26 13:56:01;;;;;;;14.02;2.70;;;;;;;;;;6120947;23;20016;-61
2022/11/26 13:58:31;;;;;;;20.33;3.20;;;;;;;;;;6122070;23;20038;-61
2022/11/26 14:01:17;;;;;;;23.48;2.90;;;;;;;;;;6121590;23;20010;-61
2022/11/26 14:03:48;;;;;;;16.95;3.60;;;;;;;;;;6119731;23;20018;-60
2022/11/26 14:06:14;;;;;;;18.65;2.80;;;;;;;;;;6120552;23;20024;-66
2022/11/26 14:08:45;;;;;;;20.63;3.70;;;;;;;;;;6121248;23;20010;-66
2022/11/26 14:11:12;;;;;;;16.75;2.60;;;;;;;;;;6120382;23;20014;-66
2022/11/26 14:13:39;;;;;;;20.75;3.50;;;;;;;;;;6121494;23;20014;-66
2022/11/26 14:16:09;;;;;;;17.08;3.47;;;;;;;;;;6120154;23;20010;-66
2022/11/26 14:19:01;;;;;;;19.88;3.10;;;;;;;;;;6120789;23;20361;-66
2022/11/26 14:21:29;;;;;;;21.73;3.72;;;;;;;;;;6117343;23;20397;-66
2022/11/26 14:23:56;;;;;;;14.20;3.63;;;;;;;;;;6120419;23;20021;-66
2022/11/26 14:26:40;;;;;;;18.95;3.90;;;;;;;;;;6121056;23;20396;-66
2022/11/26 14:29:06;;;;;;;17.50;4.25;;;;;;;;;;6139770;23;20083;-66
2022/11/26 14:31:33;;;;;;;20.83;3.72;;;;;;;;;;6243743;23;20003;-66
2022/11/26 14:34:16;;;;;;;24.05;5.22;;;;;;;;;;6244003;23;20044;-66
2022/11/26 14:36:42;;;;;;;;;;;;;;;;;;6243753;23;20438;-66
2022/11/26 14:39:08;;;;;;;27.58;4.13;;;;;;;;;;6243609;23;19910;-66
2022/11/26 14:41:55;;;;;;;18.80;3.55;;;;;;;;;;6243195;23;20014;-66
2022/11/26 14:44:22;;;;;;;21.85;3.38;;;;;;;;;;6242597;23;20016;-66